createdAt,value
2019-02-15T00:00:44.562Z,10.73
2019-02-15T00:03:13.206Z,10.97
2019-02-15T00:05:41.819Z,10.30
2019-02-15T00:08:10.418Z,10.00
2019-02-15T00:10:39.068Z,10.33
2019-02-15T00:13:13.327Z,9.27
2019-02-15T00:15:37.938Z,9.60
2019-02-15T00:18:43.770Z,9.40
2019-02-15T00:21:20.652Z,9.50
2019-02-15T00:23:49.294Z,8.87
2019-02-15T00:26:17.885Z,9.37
2019-02-15T00:28:46.476Z,8.83
2019-02-15T00:31:17.962Z,9.17
2019-02-15T00:33:46.562Z,9.27
2019-02-15T00:36:15.151Z,8.30
2019-02-15T00:38:43.762Z,7.87
2019-02-15T00:41:12.514Z,7.90
2019-02-15T00:43:41.089Z,7.87
2019-02-15T00:46:21.886Z,8.17
2019-02-15T00:48:50.636Z,8.30
2019-02-15T00:51:36.090Z,7.97
2019-02-15T00:54:16.172Z,8.60
2019-02-15T00:57:18.873Z,8.70
2019-02-15T01:00:06.973Z,8.90
2019-02-15T01:03:01.662Z,8.70
2019-02-15T01:05:58.493Z,9.10
2019-02-15T01:08:52.155Z,8.63
2019-02-15T01:11:24.589Z,9.70
2019-02-15T01:13:53.209Z,12.63
2019-02-15T01:16:21.830Z,11.03
2019-02-15T01:18:50.448Z,10.37
2019-02-15T01:21:19.060Z,10.30
2019-02-15T01:23:47.683Z,10.67
2019-02-15T01:26:44.460Z,10.50
2019-02-15T01:29:32.116Z,10.53
2019-02-15T01:32:18.122Z,9.70
2019-02-15T01:35:20.914Z,8.97
2019-02-15T01:38:23.544Z,8.53
2019-02-15T01:40:56.994Z,9.10
2019-02-15T01:43:50.380Z,11.00
2019-02-15T01:46:26.247Z,10.17
2019-02-15T01:48:54.861Z,10.33
2019-02-15T01:51:23.466Z,11.00
2019-02-15T01:53:52.084Z,10.80
2019-02-15T01:56:20.686Z,11.20
2019-02-15T01:58:49.305Z,10.57
2019-02-15T02:01:22.014Z,10.40
2019-02-15T02:03:50.612Z,10.57
2019-02-15T02:06:19.329Z,11.37
2019-02-15T02:08:47.954Z,10.70
2019-02-15T02:11:16.585Z,10.50
2019-02-15T02:13:49.700Z,10.00
2019-02-15T02:16:15.577Z,9.77
2019-02-15T02:18:44.179Z,10.30
2019-02-15T02:21:12.849Z,9.17
2019-02-15T02:23:41.474Z,9.10
2019-02-15T02:26:10.088Z,9.37
2019-02-15T02:28:38.667Z,8.47
2019-02-15T02:31:07.289Z,9.03
2019-02-15T02:33:35.894Z,8.43
2019-02-15T02:36:04.498Z,8.97
2019-02-15T02:38:33.104Z,8.17
2019-02-15T02:41:01.693Z,8.50
2019-02-15T02:43:30.330Z,9.17
2019-02-15T02:45:58.991Z,9.27
2019-02-15T02:48:27.591Z,9.13
2019-02-15T02:50:56.478Z,9.03
2019-02-15T02:53:25.444Z,9.13
2019-02-15T02:55:54.066Z,9.07
2019-02-15T03:01:45.872Z,6.60
2019-02-15T03:04:14.577Z,6.80
2019-02-15T03:07:04.028Z,6.50
2019-02-15T03:09:53.160Z,6.90
2019-02-15T03:12:40.829Z,7.30
2019-02-15T03:18:40.940Z,6.80
2019-02-15T03:21:30.096Z,7.40
2019-02-15T03:26:40.503Z,6.90
2019-02-15T03:29:29.726Z,7.33
2019-02-15T03:32:18.837Z,7.03
2019-02-15T03:35:07.246Z,6.97
2019-02-15T03:37:56.324Z,6.40
2019-02-15T03:40:45.484Z,6.97
2019-02-15T03:43:14.181Z,6.60
2019-02-15T03:46:05.061Z,6.90
2019-02-15T03:48:33.984Z,6.80
2019-02-15T03:51:02.676Z,6.60
2019-02-15T03:53:31.419Z,6.40
2019-02-15T03:56:20.477Z,6.33
2019-02-15T03:59:09.512Z,6.23
2019-02-15T04:07:12.908Z,5.60
2019-02-15T04:15:49.241Z,6.30
2019-02-15T04:18:17.860Z,5.80
2019-02-15T04:21:06.925Z,6.00
2019-02-15T04:23:56.001Z,5.60
2019-02-15T04:26:24.665Z,6.33
2019-02-15T04:29:33.210Z,6.30
2019-02-15T04:37:25.086Z,5.50
2019-02-15T04:40:14.248Z,6.10
2019-02-15T04:42:43.028Z,5.20
2019-02-15T04:45:11.671Z,6.07
2019-02-15T04:47:40.406Z,5.27
2019-02-15T04:50:29.759Z,5.40
2019-02-15T04:52:58.436Z,5.73
2019-02-15T04:55:27.356Z,5.40
2019-02-15T04:58:16.524Z,5.87
2019-02-15T05:01:05.671Z,5.37
2019-02-15T05:03:45.447Z,4.50
2019-02-15T05:06:14.041Z,5.47
2019-02-15T05:09:03.178Z,4.97
2019-02-15T05:11:54.065Z,4.97
2019-02-15T05:14:24.552Z,4.97
2019-02-15T05:17:13.621Z,4.80
2019-02-15T05:22:23.672Z,4.50
2019-02-15T05:25:12.797Z,4.63
2019-02-15T05:27:41.491Z,4.73
2019-02-15T05:30:10.207Z,4.80
2019-02-15T05:32:59.342Z,4.73
2019-02-15T05:38:42.064Z,4.93
2019-02-15T05:41:10.672Z,4.67
2019-02-15T05:44:01.683Z,5.23
2019-02-15T05:49:45.877Z,5.17
2019-02-15T05:54:58.059Z,5.20
2019-02-15T05:57:47.210Z,5.03
2019-02-15T06:00:17.615Z,4.60
2019-02-15T06:05:38.291Z,4.83
2019-02-15T06:08:07.021Z,5.60
2019-02-15T06:14:00.653Z,4.77
2019-02-15T06:22:38.477Z,4.60
2019-02-15T06:25:07.241Z,5.17
2019-02-15T06:27:56.312Z,4.80
2019-02-15T06:30:47.211Z,4.33
2019-02-15T06:33:29.093Z,5.00
2019-02-15T06:39:11.762Z,5.47
2019-02-15T06:42:00.903Z,5.90
2019-02-15T06:44:42.926Z,5.50
2019-02-15T06:49:59.557Z,6.07
2019-02-15T06:55:16.260Z,5.80
2019-02-15T07:04:23.817Z,5.87
2019-02-15T07:07:12.963Z,5.67
2019-02-15T07:09:43.465Z,5.23
2019-02-15T07:12:13.850Z,5.13
2019-02-15T07:14:42.458Z,4.90
2019-02-15T07:17:11.075Z,5.07
2019-02-15T07:19:39.680Z,6.77
2019-02-15T07:22:08.358Z,6.63
2019-02-15T07:24:37.004Z,6.37
2019-02-15T07:27:05.596Z,7.00
2019-02-15T07:29:34.259Z,6.40
2019-02-15T07:32:02.955Z,6.30
2019-02-15T07:34:31.628Z,6.07
2019-02-15T07:37:00.302Z,5.50
2019-02-15T07:39:28.896Z,5.13
2019-02-15T07:41:57.488Z,5.50
2019-02-15T07:44:26.086Z,4.67
2019-02-15T07:46:55.436Z,4.83
2019-02-15T07:49:26.756Z,5.30
2019-02-15T07:51:54.436Z,4.53
2019-02-15T07:54:23.062Z,4.50
2019-02-15T07:56:51.642Z,5.03
2019-02-15T07:59:20.302Z,5.67
2019-02-15T08:01:49.062Z,5.83
2019-02-15T08:04:17.724Z,5.40
2019-02-15T08:06:46.388Z,5.60
2019-02-15T08:29:01.360Z,4.57
2019-02-15T08:31:52.200Z,4.80
2019-02-15T08:34:33.706Z,4.73
2019-02-15T08:40:27.144Z,4.40
2019-02-15T08:49:03.292Z,4.70
2019-02-15T08:54:46.161Z,4.43
2019-02-15T08:57:35.271Z,4.50
2019-02-15T09:00:26.403Z,4.90
2019-02-15T09:02:56.935Z,5.37
2019-02-15T09:05:46.117Z,5.33
2019-02-15T09:08:36.996Z,5.43
2019-02-15T09:13:49.274Z,5.80
2019-02-15T09:16:19.667Z,5.47
2019-02-15T09:27:38.620Z,5.13
2019-02-15T09:30:28.533Z,5.30
2019-02-15T09:32:58.992Z,4.83
2019-02-15T09:35:48.140Z,5.73
2019-02-15T09:38:39.082Z,4.93
2019-02-15T09:43:59.764Z,5.23
2019-02-15T09:46:28.542Z,5.37
2019-02-15T09:48:57.341Z,5.20
2019-02-15T09:51:48.244Z,6.10
2019-02-15T09:54:18.762Z,4.80
2019-02-15T09:57:07.878Z,5.13
2019-02-15T10:02:26.214Z,5.43
2019-02-15T10:07:44.897Z,5.40
2019-02-15T10:13:03.601Z,5.20
2019-02-15T10:15:32.336Z,5.30
2019-02-15T10:18:01.006Z,5.97
2019-02-15T10:20:29.605Z,5.43
2019-02-15T10:22:58.238Z,5.93
2019-02-15T10:25:26.835Z,5.63
2019-02-15T10:27:55.458Z,5.10
2019-02-15T10:30:24.041Z,6.00
2019-02-15T10:32:52.633Z,6.00
2019-02-15T10:35:21.246Z,5.97
2019-02-15T10:37:49.864Z,6.10
2019-02-15T10:40:21.339Z,5.97
2019-02-15T10:42:49.968Z,5.50
2019-02-15T10:45:18.594Z,6.30
2019-02-15T10:47:47.211Z,6.50
2019-02-15T10:50:15.837Z,5.47
2019-02-15T10:52:44.439Z,6.40
2019-02-15T10:55:13.183Z,5.40
2019-02-15T10:57:41.834Z,5.57
2019-02-15T11:00:15.675Z,5.93
2019-02-15T11:02:44.626Z,6.50
2019-02-15T11:05:13.440Z,5.87
2019-02-15T11:07:42.024Z,5.53
2019-02-15T11:10:10.627Z,6.20
2019-02-15T11:12:39.347Z,6.00
2019-02-15T11:15:08.336Z,6.00
2019-02-15T11:17:36.910Z,6.00
2019-02-15T11:20:05.627Z,6.13
2019-02-15T11:22:34.217Z,5.73
2019-02-15T11:25:02.800Z,6.47
2019-02-15T11:27:31.493Z,6.50
2019-02-15T11:30:00.103Z,6.90
2019-02-15T11:32:28.860Z,6.80
2019-02-15T11:34:57.477Z,6.50
2019-02-15T11:37:26.060Z,7.00
2019-02-15T11:39:54.672Z,6.30
2019-02-15T11:42:23.283Z,6.77
2019-02-15T11:44:51.880Z,6.97
2019-02-15T11:47:20.467Z,6.93
2019-02-15T11:49:49.091Z,6.17
2019-02-15T11:52:17.675Z,7.03
2019-02-15T11:54:46.275Z,7.20
2019-02-15T11:57:14.901Z,6.70
2019-02-15T11:59:43.505Z,7.40
2019-02-15T12:02:12.115Z,7.17
2019-02-15T12:04:40.814Z,6.40
2019-02-15T12:07:09.421Z,7.23
2019-02-15T12:09:37.999Z,6.97
2019-02-15T12:12:10.761Z,7.13
2019-02-15T12:14:36.889Z,7.47
2019-02-15T12:17:05.986Z,7.40
2019-02-15T12:19:34.682Z,7.00
2019-02-15T12:22:03.275Z,7.30
2019-02-15T12:24:31.895Z,7.10
2019-02-15T12:27:00.481Z,6.23
2019-02-15T12:29:29.077Z,7.00
2019-02-15T12:31:57.703Z,7.03
2019-02-15T12:34:26.294Z,6.73
2019-02-15T12:36:54.875Z,7.03
2019-02-15T12:39:23.515Z,7.60
2019-02-15T12:41:52.159Z,7.07
2019-02-15T12:44:20.757Z,7.17
2019-02-15T12:46:49.378Z,7.03
2019-02-15T12:49:17.967Z,7.03
2019-02-15T12:51:46.560Z,7.97
2019-02-15T12:54:15.188Z,8.17
2019-02-15T12:56:43.897Z,8.07
2019-02-15T12:59:12.484Z,7.20
2019-02-15T13:01:41.093Z,7.13
2019-02-15T13:04:09.695Z,7.70
2019-02-15T13:06:38.277Z,8.07
2019-02-15T13:09:06.931Z,7.83
2019-02-15T13:11:35.523Z,7.10
2019-02-15T13:14:04.138Z,6.80
2019-02-15T13:16:32.759Z,7.30
2019-02-15T13:19:01.344Z,7.37
2019-02-15T13:21:29.959Z,7.07
2019-02-15T13:23:58.649Z,7.63
2019-02-15T13:26:27.267Z,7.13
2019-02-15T13:28:55.909Z,7.10
2019-02-15T13:31:24.525Z,6.77
2019-02-15T13:33:53.181Z,7.23
2019-02-15T13:36:21.775Z,7.40
2019-02-15T13:38:50.379Z,7.07
2019-02-15T13:41:19.013Z,6.43
2019-02-15T13:43:47.667Z,6.63
2019-02-15T13:46:16.265Z,6.67
2019-02-15T13:48:44.858Z,6.60
2019-02-15T13:51:13.465Z,7.07
2019-02-15T13:53:42.068Z,6.80
2019-02-15T13:56:10.714Z,7.00
2019-02-15T13:58:39.311Z,7.40
2019-02-15T14:01:07.902Z,6.73
2019-02-15T14:03:36.536Z,6.10
2019-02-15T14:06:05.108Z,6.83
2019-02-15T14:08:33.742Z,6.47
2019-02-15T14:11:02.343Z,6.33
2019-02-15T14:13:30.940Z,6.97
2019-02-15T14:15:59.566Z,6.80
2019-02-15T14:18:28.218Z,6.70
2019-02-15T14:20:56.835Z,6.87
2019-02-15T14:23:25.484Z,6.73
2019-02-15T14:25:54.085Z,7.20
2019-02-15T14:28:22.664Z,7.40
2019-02-15T14:30:51.339Z,7.20
2019-02-15T14:33:20.059Z,6.87
2019-02-15T14:35:48.663Z,7.20
2019-02-15T14:38:17.276Z,7.30
2019-02-15T14:40:45.939Z,6.67
2019-02-15T14:43:14.546Z,6.47
2019-02-15T14:45:43.300Z,6.00
2019-02-15T14:48:11.934Z,6.20
2019-02-15T14:50:40.561Z,7.20
2019-02-15T14:53:09.174Z,7.00
2019-02-15T14:55:37.759Z,6.17
2019-02-15T14:58:06.366Z,6.67
2019-02-15T15:00:34.985Z,6.30
2019-02-15T15:03:03.572Z,6.63
2019-02-15T15:05:32.148Z,6.07
2019-02-15T15:08:00.760Z,6.37
2019-02-15T15:10:29.346Z,6.63
2019-02-15T15:12:57.946Z,6.27
2019-02-15T15:15:26.570Z,6.83
2019-02-15T15:18:05.931Z,5.87
2019-02-15T15:20:25.670Z,6.43
2019-02-15T15:22:54.282Z,6.17
2019-02-15T15:25:22.866Z,6.30
2019-02-15T15:27:51.462Z,6.87
2019-02-15T15:30:20.071Z,6.20
2019-02-15T15:32:51.676Z,5.70
2019-02-15T15:35:20.290Z,6.97
2019-02-15T15:37:48.992Z,6.23
2019-02-15T15:40:17.673Z,6.30
2019-02-15T15:42:46.260Z,6.80
2019-02-15T15:45:15.044Z,5.90
2019-02-15T15:47:43.676Z,6.63
2019-02-15T15:50:12.271Z,6.60
2019-02-15T15:52:40.935Z,6.17
2019-02-15T15:55:09.685Z,6.23
2019-02-15T15:57:38.340Z,6.50
2019-02-15T16:00:07.703Z,6.07
2019-02-15T16:02:36.320Z,6.27
2019-02-15T16:05:05.120Z,7.17
2019-02-15T16:07:33.730Z,7.37
2019-02-15T16:10:02.341Z,8.27
2019-02-15T16:12:30.936Z,8.10
2019-02-15T16:14:59.584Z,8.53
2019-02-15T16:17:29.759Z,8.50
2019-02-15T16:19:58.368Z,9.87
2019-02-15T16:22:26.988Z,9.83
2019-02-15T16:24:55.589Z,10.03
2019-02-15T16:27:24.192Z,9.97
2019-02-15T16:29:52.804Z,10.40
2019-02-15T16:32:21.410Z,10.30
2019-02-15T16:34:49.996Z,10.47
2019-02-15T16:37:18.600Z,10.40
2019-02-15T16:39:47.236Z,10.47
2019-02-15T16:42:15.830Z,9.73
2019-02-15T16:44:44.418Z,9.67
2019-02-15T16:47:13.088Z,9.67
2019-02-15T16:49:41.821Z,10.30
2019-02-15T16:52:10.480Z,9.80
2019-02-15T16:54:39.094Z,9.27
2019-02-15T16:57:07.725Z,10.37
2019-02-15T16:59:36.309Z,9.40
2019-02-15T17:02:04.991Z,10.20
2019-02-15T17:04:33.598Z,10.67
2019-02-15T17:07:02.199Z,10.70
2019-02-15T17:09:30.932Z,10.50
2019-02-15T17:11:59.596Z,10.00
2019-02-15T17:14:29.245Z,9.37
2019-02-15T17:16:57.832Z,9.13
2019-02-15T17:19:26.480Z,9.50
2019-02-15T17:21:55.095Z,9.43
2019-02-15T17:24:23.698Z,10.13
2019-02-15T17:26:52.290Z,9.33
2019-02-15T17:29:20.916Z,10.17
2019-02-15T17:31:49.537Z,10.47
2019-02-15T17:34:18.148Z,9.80
2019-02-15T17:36:47.030Z,10.43
2019-02-15T17:39:15.680Z,10.57
2019-02-15T17:41:44.277Z,9.57
2019-02-15T17:44:12.885Z,10.23
2019-02-15T17:46:41.498Z,10.93
2019-02-15T17:49:10.116Z,11.30
2019-02-15T17:51:38.850Z,10.03
2019-02-15T17:54:07.470Z,11.53
2019-02-15T17:56:36.066Z,10.63
2019-02-15T17:59:04.727Z,10.50
2019-02-15T18:01:34.322Z,10.10
2019-02-15T18:04:03.177Z,10.87
2019-02-15T18:06:31.811Z,10.83
2019-02-15T18:09:00.416Z,10.10
2019-02-15T18:11:29.006Z,10.77
2019-02-15T18:13:57.628Z,10.93
2019-02-15T18:16:26.236Z,10.87
2019-02-15T18:18:54.910Z,10.27
2019-02-15T18:21:23.592Z,10.37
2019-02-15T18:23:52.240Z,10.77
2019-02-15T18:26:21.120Z,10.80
2019-02-15T18:28:49.821Z,10.33
2019-02-15T18:31:18.454Z,10.97
2019-02-15T18:33:47.056Z,11.53
2019-02-15T18:36:15.667Z,12.53
2019-02-15T18:38:44.548Z,11.40
2019-02-15T18:41:13.863Z,11.27
2019-02-15T18:43:42.627Z,11.87
2019-02-15T18:46:11.258Z,11.07
2019-02-15T18:48:39.843Z,11.17
2019-02-15T18:51:08.443Z,10.53
2019-02-15T18:53:37.059Z,10.70
2019-02-15T18:56:05.646Z,10.93
2019-02-15T18:58:34.245Z,11.07
2019-02-15T19:01:02.847Z,10.53
2019-02-15T19:03:31.539Z,11.30
2019-02-15T19:06:00.145Z,10.83
2019-02-15T19:08:28.785Z,10.87
2019-02-15T19:10:57.402Z,9.90
2019-02-15T19:13:26.017Z,11.00
2019-02-15T19:15:54.613Z,11.20
2019-02-15T19:18:23.244Z,10.40
2019-02-15T19:20:51.953Z,9.67
2019-02-15T19:23:20.611Z,10.57
2019-02-15T19:25:49.215Z,9.93
2019-02-15T19:28:17.919Z,10.00
2019-02-15T19:30:46.567Z,10.37
2019-02-15T19:33:15.205Z,9.80
2019-02-15T19:35:43.810Z,9.37
2019-02-15T19:38:12.425Z,10.37
2019-02-15T19:40:41.617Z,9.97
2019-02-15T19:43:10.485Z,10.57
2019-02-15T19:45:39.143Z,9.83
2019-02-15T19:48:07.751Z,10.47
2019-02-15T19:50:36.351Z,8.77
2019-02-15T19:53:04.983Z,9.83
2019-02-15T19:55:33.599Z,9.70
2019-02-15T19:58:02.205Z,9.87
2019-02-15T20:00:30.826Z,10.20
2019-02-15T20:02:59.423Z,9.40
2019-02-15T20:05:28.039Z,9.80
2019-02-15T20:07:56.697Z,9.93
2019-02-15T20:10:25.320Z,11.03
2019-02-15T20:12:53.993Z,10.10
2019-02-15T20:15:22.603Z,10.80
2019-02-15T20:17:51.219Z,11.07
2019-02-15T20:20:19.858Z,10.80
2019-02-15T20:22:48.539Z,10.97
2019-02-15T20:25:17.140Z,10.77
2019-02-15T20:27:45.861Z,11.47
2019-02-15T20:30:15.339Z,11.67
2019-02-15T20:32:43.967Z,11.77
2019-02-15T20:35:13.614Z,12.40
2019-02-15T20:37:42.463Z,12.60
2019-02-15T20:40:11.145Z,12.03
2019-02-15T20:42:39.910Z,12.13
2019-02-15T20:45:12.578Z,12.60
2019-02-15T20:47:41.171Z,11.83
2019-02-15T20:50:09.813Z,11.93
2019-02-15T20:52:38.481Z,11.20
2019-02-15T20:55:07.720Z,11.47
2019-02-15T20:57:36.327Z,13.17
2019-02-15T21:00:05.823Z,12.27
2019-02-15T21:02:34.445Z,12.87
2019-02-15T21:05:03.113Z,12.57
2019-02-15T21:07:31.741Z,14.57
2019-02-15T21:10:00.342Z,12.70
2019-02-15T21:12:28.951Z,13.60
2019-02-15T21:14:57.599Z,13.17
2019-02-15T21:17:26.264Z,13.07
2019-02-15T21:19:54.901Z,13.60
2019-02-15T21:22:23.552Z,13.00
2019-02-15T21:24:52.142Z,12.53
2019-02-15T21:27:20.750Z,12.27
2019-02-15T21:29:49.403Z,11.13
2019-02-15T21:32:18.067Z,10.53
2019-02-15T21:34:46.658Z,10.67
2019-02-15T21:37:15.283Z,10.03
2019-02-15T21:39:43.878Z,10.10
2019-02-15T21:42:12.485Z,10.63
2019-02-15T21:44:41.121Z,10.63
2019-02-15T21:47:09.717Z,11.00
2019-02-15T21:49:38.615Z,10.57
2019-02-15T21:52:07.347Z,10.50
2019-02-15T21:54:35.938Z,11.17
2019-02-15T21:57:04.553Z,10.13
2019-02-15T21:59:33.164Z,10.60
2019-02-15T22:02:01.757Z,10.90
2019-02-15T22:04:30.361Z,10.13
2019-02-15T22:06:59.507Z,9.50
2019-02-15T22:09:28.116Z,9.70
2019-02-15T22:11:56.720Z,10.37
2019-02-15T22:14:25.433Z,9.90
2019-02-15T22:16:54.033Z,10.73
2019-02-15T22:19:22.641Z,9.67
2019-02-15T22:21:51.265Z,10.33
2019-02-15T22:24:19.901Z,11.03
2019-02-15T22:26:48.531Z,10.03
2019-02-15T22:29:17.144Z,9.70
2019-02-15T22:31:45.736Z,9.07
2019-02-15T22:34:14.332Z,9.93
2019-02-15T22:36:42.949Z,10.37
2019-02-15T22:39:11.559Z,9.90
2019-02-15T22:41:40.250Z,10.57
2019-02-15T22:44:08.898Z,9.67
2019-02-15T22:46:37.496Z,9.73
2019-02-15T22:49:06.096Z,9.03
2019-02-15T22:51:34.711Z,8.90
2019-02-15T22:54:03.304Z,8.77
2019-02-15T22:56:31.920Z,8.90
2019-02-15T22:59:00.550Z,9.20
2019-02-15T23:01:29.350Z,9.30
2019-02-15T23:03:57.948Z,8.37
2019-02-15T23:06:26.559Z,8.93
2019-02-15T23:08:55.165Z,9.10
2019-02-15T23:11:23.941Z,8.90
2019-02-15T23:13:52.533Z,9.17
2019-02-15T23:16:21.118Z,8.57
2019-02-15T23:18:49.736Z,9.47
2019-02-15T23:21:18.342Z,9.50
2019-02-15T23:23:46.953Z,10.10
2019-02-15T23:26:15.638Z,9.70
2019-02-15T23:28:44.226Z,9.40
2019-02-15T23:31:12.817Z,9.60
2019-02-15T23:33:41.419Z,8.93
2019-02-15T23:36:10.006Z,9.63
2019-02-15T23:38:38.607Z,9.43
2019-02-15T23:41:07.244Z,9.00
2019-02-15T23:43:35.837Z,9.17
2019-02-15T23:46:04.432Z,9.60
2019-02-15T23:48:33.086Z,8.63
2019-02-15T23:51:01.716Z,9.60
2019-02-15T23:53:30.294Z,8.97
2019-02-15T23:55:58.912Z,8.67
2019-02-15T23:58:27.498Z,8.50
